sensor_id;sensor_type;location;lat;lon;timestamp;pressure;altitude;pressure_sealevel;temperature;humidity
22255;BME280;11296;42.684;23.322;2022-10-16T00:00:42;95866.47;;;9.41;100.00
22255;BME280;11296;42.684;23.322;2022-10-16T00:03:08;95845.19;;;9.25;100.00
22255;BME280;11296;42.684;23.322;2022-10-16T00:05:40;95896.09;;;9.59;100.00
22255;BME280;11296;42.684;23.322;2022-10-16T00:08:07;95893.22;;;9.54;100.00
22255;BME280;11296;42.684;23.322;2022-10-16T00:10:33;95880.13;;;9.34;100.00
22255;BME280;11296;42.684;23.322;2022-10-16T00:12:59;95898.56;;;9.45;100.00
22255;BME280;11296;42.684;23.322;2022-10-16T00:15:25;95905.13;;;9.44;100.00
22255;BME280;11296;42.684;23.322;2022-10-16T00:17:51;95876.78;;;9.21;100.00
22255;BME280;11296;42.684;23.322;2022-10-16T00:20:16;95883.91;;;9.15;100.00
22255;BME280;11296;42.684;23.322;2022-10-16T00:22:42;95887.34;;;9.16;100.00
22255;BME280;11296;42.684;23.322;2022-10-16T00:25:08;95925.84;;;9.43;100.00
22255;BME280;11296;42.684;23.322;2022-10-16T00:27:34;95914.09;;;9.28;100.00
22255;BME280;11296;42.684;23.322;2022-10-16T00:30:00;95891.13;;;9.06;100.00
22255;BME280;11296;42.684;23.322;2022-10-16T00:32:26;95926.47;;;9.26;100.00
22255;BME280;11296;42.684;23.322;2022-10-16T00:34:51;95872.78;;;8.82;100.00
22255;BME280;11296;42.684;23.322;2022-10-16T00:37:20;95889.56;;;8.95;100.00
22255;BME280;11296;42.684;23.322;2022-10-16T00:39:46;95940.47;;;9.21;100.00
22255;BME280;11296;42.684;23.322;2022-10-16T00:42:16;95888.88;;;8.82;100.00
22255;BME280;11296;42.684;23.322;2022-10-16T00:44:51;95894.22;;;8.82;100.00
22255;BME280;11296;42.684;23.322;2022-10-16T00:47:26;95876.69;;;8.69;100.00
22255;BME280;11296;42.684;23.322;2022-10-16T00:49:58;95907.72;;;8.91;100.00
22255;BME280;11296;42.684;23.322;2022-10-16T00:52:24;95902.72;;;8.81;100.00
22255;BME280;11296;42.684;23.322;2022-10-16T00:54:52;95883.97;;;8.68;100.00
22255;BME280;11296;42.684;23.322;2022-10-16T00:57:19;95892.53;;;8.76;100.00
22255;BME280;11296;42.684;23.322;2022-10-16T00:59:45;95934.66;;;8.88;100.00
22255;BME280;11296;42.684;23.322;2022-10-16T01:02:13;95893.31;;;8.64;100.00
22255;BME280;11296;42.684;23.322;2022-10-16T01:04:45;95878.56;;;8.47;100.00
22255;BME280;11296;42.684;23.322;2022-10-16T01:07:14;95933.16;;;8.87;100.00
22255;BME280;11296;42.684;23.322;2022-10-16T01:09:57;95934.13;;;8.93;100.00
22255;BME280;11296;42.684;23.322;2022-10-16T01:15:41;95944.66;;;8.87;100.00
22255;BME280;11296;42.684;23.322;2022-10-16T01:18:18;95917.66;;;8.69;100.00
22255;BME280;11296;42.684;23.322;2022-10-16T01:20:56;95939.22;;;8.78;100.00
22255;BME280;11296;42.684;23.322;2022-10-16T01:29:16;95908.91;;;8.56;100.00
22255;BME280;11296;42.684;23.322;2022-10-16T01:31:48;95915.03;;;8.57;100.00
22255;BME280;11296;42.684;23.322;2022-10-16T01:34:22;95917.66;;;8.69;100.00
22255;BME280;11296;42.684;23.322;2022-10-16T01:36:58;95922.81;;;8.64;100.00
22255;BME280;11296;42.684;23.322;2022-10-16T01:39:29;95910.06;;;8.55;100.00
22255;BME280;11296;42.684;23.322;2022-10-16T01:42:08;95906.00;;;8.51;100.00
22255;BME280;11296;42.684;23.322;2022-10-16T01:44:36;95913.50;;;8.56;100.00
22255;BME280;11296;42.684;23.322;2022-10-16T01:47:04;95922.72;;;8.55;100.00
22255;BME280;11296;42.684;23.322;2022-10-16T01:49:33;95906.13;;;8.47;100.00
22255;BME280;11296;42.684;23.322;2022-10-16T01:52:02;95915.56;;;8.52;100.00
22255;BME280;11296;42.684;23.322;2022-10-16T01:54:30;95937.72;;;8.65;100.00
22255;BME280;11296;42.684;23.322;2022-10-16T01:56:57;95928.63;;;8.62;100.00
22255;BME280;11296;42.684;23.322;2022-10-16T01:59:26;95944.56;;;8.66;100.00
22255;BME280;11296;42.684;23.322;2022-10-16T02:01:56;95933.44;;;8.55;100.00
22255;BME280;11296;42.684;23.322;2022-10-16T02:04:31;95948.38;;;8.56;100.00
22255;BME280;11296;42.684;23.322;2022-10-16T02:06:58;95935.84;;;8.40;100.00
22255;BME280;11296;42.684;23.322;2022-10-16T02:09:25;95947.09;;;8.48;100.00
22255;BME280;11296;42.684;23.322;2022-10-16T02:11:53;95940.44;;;8.40;100.00
22255;BME280;11296;42.684;23.322;2022-10-16T02:14:21;95936.59;;;8.41;100.00
22255;BME280;11296;42.684;23.322;2022-10-16T02:16:50;95914.59;;;8.20;100.00
22255;BME280;11296;42.684;23.322;2022-10-16T02:19:17;95928.22;;;8.13;100.00
22255;BME280;11296;42.684;23.322;2022-10-16T02:21:56;95964.25;;;8.38;100.00
22255;BME280;11296;42.684;23.322;2022-10-16T02:27:27;95972.19;;;8.29;100.00
22255;BME280;11296;42.684;23.322;2022-10-16T02:30:03;95910.44;;;7.82;100.00
22255;BME280;11296;42.684;23.322;2022-10-16T02:32:34;95956.41;;;8.05;100.00
22255;BME280;11296;42.684;23.322;2022-10-16T02:35:01;95933.56;;;7.88;100.00
22255;BME280;11296;42.684;23.322;2022-10-16T02:37:28;95924.88;;;7.84;100.00
22255;BME280;11296;42.684;23.322;2022-10-16T02:39:56;95940.34;;;7.93;100.00
22255;BME280;11296;42.684;23.322;2022-10-16T02:42:34;95962.72;;;8.11;100.00
22255;BME280;11296;42.684;23.322;2022-10-16T02:45:00;95916.06;;;7.71;100.00
22255;BME280;11296;42.684;23.322;2022-10-16T02:47:26;95937.28;;;7.78;100.00
22255;BME280;11296;42.684;23.322;2022-10-16T02:49:52;95945.13;;;7.73;100.00
22255;BME280;11296;42.684;23.322;2022-10-16T02:52:17;95938.06;;;7.79;100.00
22255;BME280;11296;42.684;23.322;2022-10-16T02:54:43;95973.97;;;7.94;100.00
22255;BME280;11296;42.684;23.322;2022-10-16T02:57:09;95972.03;;;7.94;100.00
22255;BME280;11296;42.684;23.322;2022-10-16T02:59:34;95978.47;;;7.97;100.00
22255;BME280;11296;42.684;23.322;2022-10-16T03:02:00;95979.13;;;7.88;100.00
22255;BME280;11296;42.684;23.322;2022-10-16T03:04:26;95965.47;;;7.83;100.00
22255;BME280;11296;42.684;23.322;2022-10-16T03:06:52;95994.75;;;8.02;100.00
22255;BME280;11296;42.684;23.322;2022-10-16T03:09:17;95968.28;;;7.79;100.00
22255;BME280;11296;42.684;23.322;2022-10-16T03:11:43;95956.25;;;7.71;100.00
22255;BME280;11296;42.684;23.322;2022-10-16T03:14:09;95956.66;;;7.57;100.00
22255;BME280;11296;42.684;23.322;2022-10-16T03:16:34;95956.78;;;7.66;100.00
22255;BME280;11296;42.684;23.322;2022-10-16T03:19:00;95986.25;;;7.79;100.00
22255;BME280;11296;42.684;23.322;2022-10-16T03:21:25;96002.44;;;7.75;100.00
22255;BME280;11296;42.684;23.322;2022-10-16T03:23:51;95974.44;;;7.51;100.00
22255;BME280;11296;42.684;23.322;2022-10-16T03:26:17;95963.38;;;7.49;100.00
22255;BME280;11296;42.684;23.322;2022-10-16T03:28:42;95932.28;;;7.26;100.00
22255;BME280;11296;42.684;23.322;2022-10-16T03:31:08;95967.56;;;7.50;100.00
22255;BME280;11296;42.684;23.322;2022-10-16T03:33:34;95998.03;;;7.69;100.00
22255;BME280;11296;42.684;23.322;2022-10-16T03:35:59;95992.94;;;7.58;100.00
22255;BME280;11296;42.684;23.322;2022-10-16T03:38:25;95966.59;;;7.44;100.00
22255;BME280;11296;42.684;23.322;2022-10-16T03:40:51;95988.28;;;7.62;100.00
22255;BME280;11296;42.684;23.322;2022-10-16T03:43:16;95977.63;;;7.46;100.00
22255;BME280;11296;42.684;23.322;2022-10-16T03:45:42;95985.91;;;7.64;100.00
22255;BME280;11296;42.684;23.322;2022-10-16T03:48:08;95995.56;;;7.74;100.00
22255;BME280;11296;42.684;23.322;2022-10-16T03:50:34;95984.09;;;7.61;100.00
22255;BME280;11296;42.684;23.322;2022-10-16T03:53:00;95954.47;;;7.39;100.00
22255;BME280;11296;42.684;23.322;2022-10-16T03:55:25;95942.53;;;7.28;100.00
22255;BME280;11296;42.684;23.322;2022-10-16T03:57:51;95988.34;;;7.59;100.00
22255;BME280;11296;42.684;23.322;2022-10-16T04:00:17;95980.00;;;7.57;100.00
22255;BME280;11296;42.684;23.322;2022-10-16T04:02:42;95976.44;;;7.47;100.00
22255;BME280;11296;42.684;23.322;2022-10-16T04:05:08;95961.41;;;7.37;100.00
22255;BME280;11296;42.684;23.322;2022-10-16T04:07:34;95939.06;;;7.15;100.00
22255;BME280;11296;42.684;23.322;2022-10-16T04:10:00;95978.31;;;7.34;100.00
22255;BME280;11296;42.684;23.322;2022-10-16T04:12:26;95979.16;;;7.31;100.00
22255;BME280;11296;42.684;23.322;2022-10-16T04:14:52;95964.06;;;7.24;100.00
22255;BME280;11296;42.684;23.322;2022-10-16T04:17:17;96006.19;;;7.49;100.00
22255;BME280;11296;42.684;23.322;2022-10-16T04:19:43;95960.47;;;7.15;100.00
22255;BME280;11296;42.684;23.322;2022-10-16T04:22:09;95980.00;;;7.28;100.00
22255;BME280;11296;42.684;23.322;2022-10-16T04:24:35;95958.31;;;7.10;100.00
22255;BME280;11296;42.684;23.322;2022-10-16T04:27:00;96006.59;;;7.35;100.00
22255;BME280;11296;42.684;23.322;2022-10-16T04:29:26;95990.38;;;7.26;100.00
22255;BME280;11296;42.684;23.322;2022-10-16T04:31:52;96011.84;;;7.38;100.00
22255;BME280;11296;42.684;23.322;2022-10-16T04:34:17;95971.03;;;7.06;100.00
22255;BME280;11296;42.684;23.322;2022-10-16T04:36:43;95987.06;;;7.22;100.00
22255;BME280;11296;42.684;23.322;2022-10-16T04:39:09;96012.41;;;7.46;100.00
22255;BME280;11296;42.684;23.322;2022-10-16T04:41:35;95972.88;;;7.09;100.00
22255;BME280;11296;42.684;23.322;2022-10-16T04:44:00;96016.34;;;7.41;100.00
22255;BME280;11296;42.684;23.322;2022-10-16T04:46:26;95998.75;;;7.28;100.00
22255;BME280;11296;42.684;23.322;2022-10-16T04:48:52;95981.44;;;7.16;100.00
22255;BME280;11296;42.684;23.322;2022-10-16T04:51:17;96021.41;;;7.23;100.00
22255;BME280;11296;42.684;23.322;2022-10-16T04:53:44;96015.41;;;7.19;100.00
22255;BME280;11296;42.684;23.322;2022-10-16T04:56:10;95996.28;;;7.05;100.00
22255;BME280;11296;42.684;23.322;2022-10-16T04:58:35;95992.91;;;7.17;100.00
22255;BME280;11296;42.684;23.322;2022-10-16T05:01:01;96004.84;;;7.28;100.00
22255;BME280;11296;42.684;23.322;2022-10-16T05:03:27;96031.28;;;7.55;100.00
22255;BME280;11296;42.684;23.322;2022-10-16T05:05:52;96022.53;;;7.67;100.00
22255;BME280;11296;42.684;23.322;2022-10-16T05:08:18;96032.22;;;7.77;100.00
22255;BME280;11296;42.684;23.322;2022-10-16T05:10:44;96019.25;;;7.76;100.00
22255;BME280;11296;42.684;23.322;2022-10-16T05:13:10;96007.34;;;7.64;100.00
22255;BME280;11296;42.684;23.322;2022-10-16T05:15:36;96027.09;;;7.95;100.00
22255;BME280;11296;42.684;23.322;2022-10-16T05:18:02;96035.63;;;8.19;100.00
22255;BME280;11296;42.684;23.322;2022-10-16T05:20:28;96033.00;;;8.32;100.00
22255;BME280;11296;42.684;23.322;2022-10-16T05:22:54;96053.91;;;8.37;100.00
22255;BME280;11296;42.684;23.322;2022-10-16T05:25:20;95988.75;;;7.86;100.00
22255;BME280;11296;42.684;23.322;2022-10-16T05:27:49;96051.59;;;8.22;100.00
22255;BME280;11296;42.684;23.322;2022-10-16T05:30:16;96070.78;;;8.08;100.00
22255;BME280;11296;42.684;23.322;2022-10-16T05:32:48;96045.44;;;7.97;100.00
22255;BME280;11296;42.684;23.322;2022-10-16T05:35:16;96051.88;;;7.99;100.00
22255;BME280;11296;42.684;23.322;2022-10-16T05:37:42;96005.34;;;7.81;100.00
22255;BME280;11296;42.684;23.322;2022-10-16T05:40:08;96061.69;;;8.18;100.00
22255;BME280;11296;42.684;23.322;2022-10-16T05:42:34;96060.91;;;8.18;100.00
22255;BME280;11296;42.684;23.322;2022-10-16T05:45:00;96031.63;;;7.98;100.00
22255;BME280;11296;42.684;23.322;2022-10-16T05:47:26;96011.72;;;7.99;100.00
22255;BME280;11296;42.684;23.322;2022-10-16T05:49:51;96075.16;;;8.44;100.00
22255;BME280;11296;42.684;23.322;2022-10-16T05:52:17;96050.91;;;8.35;100.00
22255;BME280;11296;42.684;23.322;2022-10-16T05:54:43;96058.06;;;8.38;100.00
22255;BME280;11296;42.684;23.322;2022-10-16T05:57:09;96083.72;;;8.51;100.00
22255;BME280;11296;42.684;23.322;2022-10-16T05:59:35;96066.56;;;8.49;100.00
22255;BME280;11296;42.684;23.322;2022-10-16T06:02:00;96055.00;;;8.39;100.00
22255;BME280;11296;42.684;23.322;2022-10-16T06:04:26;96061.31;;;8.33;100.00
22255;BME280;11296;42.684;23.322;2022-10-16T06:06:52;96044.34;;;8.36;100.00
22255;BME280;11296;42.684;23.322;2022-10-16T06:09:17;96072.28;;;8.63;100.00
22255;BME280;11296;42.684;23.322;2022-10-16T06:11:43;96056.25;;;8.60;100.00
22255;BME280;11296;42.684;23.322;2022-10-16T06:14:09;96044.88;;;8.68;100.00
22255;BME280;11296;42.684;23.322;2022-10-16T06:16:36;96085.34;;;8.74;100.00
22255;BME280;11296;42.684;23.322;2022-10-16T06:19:03;96106.69;;;9.03;100.00
22255;BME280;11296;42.684;23.322;2022-10-16T06:21:31;96066.78;;;8.67;100.00
22255;BME280;11296;42.684;23.322;2022-10-16T06:23:58;96051.66;;;8.73;100.00
22255;BME280;11296;42.684;23.322;2022-10-16T06:26:29;96073.84;;;8.86;100.00
22255;BME280;11296;42.684;23.322;2022-10-16T06:28:56;96081.59;;;8.84;100.00
22255;BME280;11296;42.684;23.322;2022-10-16T06:31:22;96076.63;;;8.95;100.00
22255;BME280;11296;42.684;23.322;2022-10-16T06:33:51;96119.94;;;9.44;100.00
22255;BME280;11296;42.684;23.322;2022-10-16T06:36:17;96082.97;;;9.14;100.00
22255;BME280;11296;42.684;23.322;2022-10-16T06:38:43;96047.66;;;9.03;100.00
22255;BME280;11296;42.684;23.322;2022-10-16T06:41:12;96066.22;;;9.10;100.00
22255;BME280;11296;42.684;23.322;2022-10-16T06:43:38;96083.66;;;9.39;100.00
22255;BME280;11296;42.684;23.322;2022-10-16T06:46:05;96099.84;;;9.48;100.00
22255;BME280;11296;42.684;23.322;2022-10-16T06:48:33;96079.97;;;9.46;100.00
22255;BME280;11296;42.684;23.322;2022-10-16T06:51:01;96097.34;;;9.54;100.00
22255;BME280;11296;42.684;23.322;2022-10-16T06:53:29;96091.38;;;9.71;100.00
22255;BME280;11296;42.684;23.322;2022-10-16T06:55:55;96113.16;;;10.08;100.00
22255;BME280;11296;42.684;23.322;2022-10-16T06:58:22;96096.91;;;9.90;100.00
22255;BME280;11296;42.684;23.322;2022-10-16T07:00:48;96118.50;;;10.20;100.00
22255;BME280;11296;42.684;23.322;2022-10-16T07:03:14;96114.44;;;10.16;100.00
22255;BME280;11296;42.684;23.322;2022-10-16T07:05:41;96071.16;;;9.80;100.00
22255;BME280;11296;42.684;23.322;2022-10-16T07:08:07;96120.47;;;10.20;100.00
22255;BME280;11296;42.684;23.322;2022-10-16T07:10:34;96147.22;;;10.45;100.00
22255;BME280;11296;42.684;23.322;2022-10-16T07:13:00;96073.28;;;10.06;100.00
22255;BME280;11296;42.684;23.322;2022-10-16T07:15:26;96091.56;;;10.33;100.00
22255;BME280;11296;42.684;23.322;2022-10-16T07:17:52;96117.22;;;10.56;100.00
22255;BME280;11296;42.684;23.322;2022-10-16T07:20:18;96091.63;;;10.51;100.00
22255;BME280;11296;42.684;23.322;2022-10-16T07:22:44;96132.16;;;10.78;100.00
22255;BME280;11296;42.684;23.322;2022-10-16T07:25:10;96110.00;;;10.74;100.00
22255;BME280;11296;42.684;23.322;2022-10-16T07:27:36;96118.91;;;10.62;100.00
22255;BME280;11296;42.684;23.322;2022-10-16T07:30:03;96133.00;;;10.97;100.00
22255;BME280;11296;42.684;23.322;2022-10-16T07:32:30;96114.56;;;10.95;100.00
22255;BME280;11296;42.684;23.322;2022-10-16T07:34:56;96133.50;;;11.23;100.00
22255;BME280;11296;42.684;23.322;2022-10-16T07:37:22;96113.59;;;11.20;100.00
22255;BME280;11296;42.684;23.322;2022-10-16T07:39:49;96105.06;;;11.22;100.00
22255;BME280;11296;42.684;23.322;2022-10-16T07:42:15;96151.25;;;11.51;100.00
22255;BME280;11296;42.684;23.322;2022-10-16T07:44:57;96111.69;;;11.30;100.00
22255;BME280;11296;42.684;23.322;2022-10-16T07:47:22;96096.88;;;11.34;100.00
22255;BME280;11296;42.684;23.322;2022-10-16T07:49:52;96158.19;;;11.79;100.00
22255;BME280;11296;42.684;23.322;2022-10-16T07:52:20;96130.72;;;11.44;100.00
22255;BME280;11296;42.684;23.322;2022-10-16T07:54:45;96115.34;;;11.63;100.00
22255;BME280;11296;42.684;23.322;2022-10-16T07:57:11;96153.59;;;11.98;100.00
22255;BME280;11296;42.684;23.322;2022-10-16T07:59:37;96155.53;;;11.88;100.00
22255;BME280;11296;42.684;23.322;2022-10-16T08:02:03;96131.69;;;11.77;100.00
22255;BME280;11296;42.684;23.322;2022-10-16T08:04:32;96127.22;;;11.83;100.00
22255;BME280;11296;42.684;23.322;2022-10-16T08:06:57;96134.56;;;12.10;100.00
22255;BME280;11296;42.684;23.322;2022-10-16T08:09:23;96116.72;;;12.13;100.00
22255;BME280;11296;42.684;23.322;2022-10-16T08:11:49;96152.19;;;12.47;100.00
22255;BME280;11296;42.684;23.322;2022-10-16T08:14:15;96102.00;;;12.32;100.00
22255;BME280;11296;42.684;23.322;2022-10-16T08:16:44;96093.91;;;12.41;100.00
22255;BME280;11296;42.684;23.322;2022-10-16T08:19:12;96145.81;;;12.87;100.00
22255;BME280;11296;42.684;23.322;2022-10-16T08:21:40;96106.75;;;12.55;100.00
22255;BME280;11296;42.684;23.322;2022-10-16T08:24:06;96133.38;;;12.80;100.00
22255;BME280;11296;42.684;23.322;2022-10-16T08:26:35;96074.22;;;12.58;100.00
22255;BME280;11296;42.684;23.322;2022-10-16T08:29:01;96125.38;;;12.95;100.00
22255;BME280;11296;42.684;23.322;2022-10-16T08:31:29;96120.69;;;13.13;100.00
22255;BME280;11296;42.684;23.322;2022-10-16T08:33:54;96092.75;;;13.16;100.00
22255;BME280;11296;42.684;23.322;2022-10-16T08:36:20;96119.69;;;13.34;100.00
22255;BME280;11296;42.684;23.322;2022-10-16T08:38:49;96117.59;;;13.53;100.00
22255;BME280;11296;42.684;23.322;2022-10-16T08:47:00;96122.19;;;14.09;100.00
22255;BME280;11296;42.684;23.322;2022-10-16T08:49:33;96104.47;;;14.23;100.00
22255;BME280;11296;42.684;23.322;2022-10-16T08:52:01;96125.59;;;14.48;100.00
22255;BME280;11296;42.684;23.322;2022-10-16T08:55:39;96087.19;;;14.20;100.00
22255;BME280;11296;42.684;23.322;2022-10-16T09:08:05;96123.56;;;21.14;72.47
22255;BME280;11296;42.684;23.322;2022-10-16T09:11:39;96078.44;;;22.12;59.13
22255;BME280;11296;42.684;23.322;2022-10-16T09:38:32;96100.97;;;27.18;37.93
22255;BME280;11296;42.684;23.322;2022-10-16T09:52:13;96082.06;;;26.64;37.73
22255;BME280;11296;42.684;23.322;2022-10-16T09:58:35;96085.41;;;27.76;36.28
22255;BME280;11296;42.684;23.322;2022-10-16T10:01:02;96055.97;;;27.63;35.07
22255;BME280;11296;42.684;23.322;2022-10-16T10:03:40;96061.53;;;27.48;35.59
22255;BME280;11296;42.684;23.322;2022-10-16T10:10:27;96065.66;;;28.02;33.68
22255;BME280;11296;42.684;23.322;2022-10-16T10:12:58;96083.56;;;26.73;34.87
22255;BME280;11296;42.684;23.322;2022-10-16T10:15:41;96093.06;;;27.38;34.56
22255;BME280;11296;42.684;23.322;2022-10-16T10:18:36;96069.25;;;26.82;34.28
22255;BME280;11296;42.684;23.322;2022-10-16T10:21:03;96058.53;;;27.69;32.36
22255;BME280;11296;42.684;23.322;2022-10-16T10:23:39;96072.91;;;28.70;32.23
22255;BME280;11296;42.684;23.322;2022-10-16T10:26:20;96042.34;;;27.58;32.31
22255;BME280;11296;42.684;23.322;2022-10-16T10:29:12;96082.16;;;27.55;32.31
22255;BME280;11296;42.684;23.322;2022-10-16T10:32:13;96086.91;;;28.72;33.33
22255;BME280;11296;42.684;23.322;2022-10-16T10:45:46;96079.94;;;27.08;35.47
22255;BME280;11296;42.684;23.322;2022-10-16T11:03:06;96017.22;;;24.92;37.58
22255;BME280;11296;42.684;23.322;2022-10-16T11:09:50;96048.50;;;28.04;33.30
22255;BME280;11296;42.684;23.322;2022-10-16T11:17:01;96042.06;;;28.33;30.79
22255;BME280;11296;42.684;23.322;2022-10-16T11:22:37;96046.91;;;29.73;30.61
22255;BME280;11296;42.684;23.322;2022-10-16T11:25:20;96021.91;;;28.97;30.13
22255;BME280;11296;42.684;23.322;2022-10-16T11:27:50;96032.41;;;29.82;29.43
22255;BME280;11296;42.684;23.322;2022-10-16T11:30:23;96019.03;;;29.54;29.96
22255;BME280;11296;42.684;23.322;2022-10-16T11:39:35;96034.44;;;27.47;33.85
22255;BME280;11296;42.684;23.322;2022-10-16T11:42:04;96024.38;;;28.29;31.15
22255;BME280;11296;42.684;23.322;2022-10-16T11:44:51;96013.28;;;28.04;31.35
22255;BME280;11296;42.684;23.322;2022-10-16T11:49:59;95982.78;;;28.12;31.17
22255;BME280;11296;42.684;23.322;2022-10-16T11:52:44;96008.25;;;28.75;30.33
22255;BME280;11296;42.684;23.322;2022-10-16T11:57:52;96025.25;;;29.20;30.85
22255;BME280;11296;42.684;23.322;2022-10-16T12:03:04;96042.19;;;30.71;28.93
22255;BME280;11296;42.684;23.322;2022-10-16T12:06:11;96029.78;;;28.51;30.71
22255;BME280;11296;42.684;23.322;2022-10-16T12:08:40;96021.13;;;29.29;30.54
22255;BME280;11296;42.684;23.322;2022-10-16T12:14:03;96000.69;;;29.17;30.89
22255;BME280;11296;42.684;23.322;2022-10-16T12:16:28;96006.88;;;29.08;30.90
22255;BME280;11296;42.684;23.322;2022-10-16T12:19:14;96035.84;;;28.90;30.65
22255;BME280;11296;42.684;23.322;2022-10-16T12:21:40;96037.00;;;29.04;30.15
22255;BME280;11296;42.684;23.322;2022-10-16T12:26:49;96031.66;;;30.43;28.79
22255;BME280;11296;42.684;23.322;2022-10-16T12:31:46;96003.00;;;31.03;27.92
22255;BME280;11296;42.684;23.322;2022-10-16T12:34:42;96023.66;;;31.29;28.52
22255;BME280;11296;42.684;23.322;2022-10-16T12:37:13;96024.19;;;30.99;28.63
22255;BME280;11296;42.684;23.322;2022-10-16T12:39:40;96009.03;;;30.73;28.85
22255;BME280;11296;42.684;23.322;2022-10-16T12:44:53;96008.91;;;31.36;27.50
22255;BME280;11296;42.684;23.322;2022-10-16T12:49:58;96032.09;;;30.66;27.90
22255;BME280;11296;42.684;23.322;2022-10-16T12:52:44;96021.47;;;30.82;28.04
22255;BME280;11296;42.684;23.322;2022-10-16T12:55:17;96005.53;;;30.02;28.90
22255;BME280;11296;42.684;23.322;2022-10-16T13:11:08;96040.59;;;32.17;26.81
22255;BME280;11296;42.684;23.322;2022-10-16T13:19:29;96013.41;;;31.22;26.16
22255;BME280;11296;42.684;23.322;2022-10-16T13:28:05;96020.31;;;29.53;28.10
22255;BME280;11296;42.684;23.322;2022-10-16T13:30:38;96041.75;;;29.53;28.47
22255;BME280;11296;42.684;23.322;2022-10-16T13:33:16;96041.69;;;29.43;28.35
22255;BME280;11296;42.684;23.322;2022-10-16T13:35:52;96020.63;;;30.09;28.35
22255;BME280;11296;42.684;23.322;2022-10-16T13:38:27;96007.97;;;30.15;28.00
22255;BME280;11296;42.684;23.322;2022-10-16T13:40:58;96047.88;;;30.20;28.53
22255;BME280;11296;42.684;23.322;2022-10-16T13:43:29;96019.28;;;30.27;28.22
22255;BME280;11296;42.684;23.322;2022-10-16T13:46:12;96016.16;;;30.40;28.14
22255;BME280;11296;42.684;23.322;2022-10-16T13:48:38;96052.53;;;30.88;27.29
22255;BME280;11296;42.684;23.322;2022-10-16T13:51:17;96054.72;;;30.36;28.12
22255;BME280;11296;42.684;23.322;2022-10-16T13:53:44;96023.00;;;29.95;28.20
22255;BME280;11296;42.684;23.322;2022-10-16T13:56:18;96033.84;;;28.83;28.11
22255;BME280;11296;42.684;23.322;2022-10-16T13:58:45;96027.19;;;28.53;27.77
22255;BME280;11296;42.684;23.322;2022-10-16T14:01:20;96019.53;;;26.97;29.53
22255;BME280;11296;42.684;23.322;2022-10-16T14:03:49;96047.53;;;26.78;29.55
22255;BME280;11296;42.684;23.322;2022-10-16T14:06:19;96044.22;;;26.87;29.65
22255;BME280;11296;42.684;23.322;2022-10-16T14:09:08;96054.25;;;27.83;28.96
22255;BME280;11296;42.684;23.322;2022-10-16T14:11:49;96052.66;;;27.50;29.28
22255;BME280;11296;42.684;23.322;2022-10-16T14:14:18;96060.03;;;27.32;29.06
22255;BME280;11296;42.684;23.322;2022-10-16T14:16:45;96043.97;;;26.55;29.22
22255;BME280;11296;42.684;23.322;2022-10-16T14:19:21;96009.13;;;25.15;30.29
22255;BME280;11296;42.684;23.322;2022-10-16T14:21:51;96059.06;;;25.39;30.28
22255;BME280;11296;42.684;23.322;2022-10-16T14:24:31;96043.13;;;24.96;30.98
22255;BME280;11296;42.684;23.322;2022-10-16T14:26:58;96048.72;;;25.04;31.03
22255;BME280;11296;42.684;23.322;2022-10-16T14:29:33;96052.78;;;25.31;30.89
22255;BME280;11296;42.684;23.322;2022-10-16T14:32:03;96047.22;;;25.24;31.10
22255;BME280;11296;42.684;23.322;2022-10-16T14:34:35;96055.63;;;24.77;31.71
22255;BME280;11296;42.684;23.322;2022-10-16T14:39:51;96054.25;;;24.70;31.60
22255;BME280;11296;42.684;23.322;2022-10-16T14:42:20;96085.91;;;24.77;32.15
22255;BME280;11296;42.684;23.322;2022-10-16T14:44:49;96069.88;;;25.09;31.44
22255;BME280;11296;42.684;23.322;2022-10-16T14:47:19;96053.75;;;25.13;31.09
22255;BME280;11296;42.684;23.322;2022-10-16T14:49:48;96048.78;;;23.24;33.23
22255;BME280;11296;42.684;23.322;2022-10-16T14:52:13;96052.00;;;22.33;34.86
22255;BME280;11296;42.684;23.322;2022-10-16T14:54:40;96054.44;;;21.81;35.99
22255;BME280;11296;42.684;23.322;2022-10-16T14:57:18;96051.34;;;21.23;37.35
22255;BME280;11296;42.684;23.322;2022-10-16T14:59:45;96060.09;;;20.21;39.13
22255;BME280;11296;42.684;23.322;2022-10-16T15:05:07;96085.47;;;19.42;42.07
22255;BME280;11296;42.684;23.322;2022-10-16T15:07:36;96070.13;;;19.06;43.27
22255;BME280;11296;42.684;23.322;2022-10-16T15:10:02;96086.97;;;19.21;44.44
22255;BME280;11296;42.684;23.322;2022-10-16T15:12:28;96087.25;;;19.06;45.27
22255;BME280;11296;42.684;23.322;2022-10-16T15:14:53;96073.16;;;18.75;46.57
22255;BME280;11296;42.684;23.322;2022-10-16T15:17:19;96064.72;;;18.67;47.12
22255;BME280;11296;42.684;23.322;2022-10-16T15:19:44;96068.19;;;18.57;48.13
22255;BME280;11296;42.684;23.322;2022-10-16T15:22:13;96097.84;;;18.43;49.75
22255;BME280;11296;42.684;23.322;2022-10-16T15:24:39;96053.91;;;17.86;51.52
22255;BME280;11296;42.684;23.322;2022-10-16T15:27:04;96081.56;;;17.73;52.02
22255;BME280;11296;42.684;23.322;2022-10-16T15:29:30;96123.94;;;17.91;53.98
22255;BME280;11296;42.684;23.322;2022-10-16T15:31:56;96098.13;;;17.70;55.26
22255;BME280;11296;42.684;23.322;2022-10-16T15:34:22;96100.91;;;17.39;57.29
22255;BME280;11296;42.684;23.322;2022-10-16T15:36:47;96113.63;;;17.53;58.15
22255;BME280;11296;42.684;23.322;2022-10-16T15:39:16;96103.63;;;17.39;59.35
22255;BME280;11296;42.684;23.322;2022-10-16T15:41:42;96107.34;;;17.41;58.41
22255;BME280;11296;42.684;23.322;2022-10-16T15:44:08;96104.66;;;17.04;60.02
22255;BME280;11296;42.684;23.322;2022-10-16T15:46:34;96120.22;;;17.04;63.01